New Tokyo, Japan

9:26 AM JST on July 31, 2016 (GMT +0900)
New Tokyo International (Narita) | | Change Station

Elev 144 ft 35.77 °N, 140.39 °E | Updated 26 minutes ago

Scattered Clouds
Scattered Clouds
82 °F
Feels Like 88 °F
N
15
Wind Variable Wind from NNE

Today
High -- | Low -- °F
--% Chance of Precip.
Yesterday
High -- | Low -- °F
Precip. -- in
Pressure 29.89 in
Visibility 6.2 miles
Clouds Few 1500 ft
Scattered Clouds 2000 ft
Heat Index 88 °F
Dew Point 73 °F
Humidity 74%
Rainfall 0.00 in
Snow Depth Not available.
4:45 AM 6:43 PM
Waning Crescent, 10% visible
METAR RJAA 310000Z 02013KT 9999 FEW015 SCT020 28/23 Q1012 NOSIG RMK 2CU015 4CU020 A2990
Pressure 29.89 in
Visibility 6.2 miles
Clouds Few 1500 ft
Scattered Clouds 2000 ft
Heat Index 88 °F
Dew Point 73 °F
Humidity 74%
Rainfall 0.00 in
Snow Depth Not available.
4:45 AM 6:43 PM
Waning Crescent, 10% visible
METAR RJAA 310000Z 02013KT 9999 FEW015 SCT020 28/23 Q1012 NOSIG RMK 2CU015 4CU020 A2990

10-Day Weather Forecast

No radar image for this location.
×

Almanac

Astronomy

Jul. 31, 2016 Rise Set
Actual Time
Civil Twilight
Nautical Twilight
Astronomical Twilight
Moon
Length of Visible Light
Length of Day
Tomorrow will be .
, % of the Moon is Illuminated

Today's Extremes

Country Highs Country Lows

Community

WunderPhotos

Upload Photos

1,928,682 photos uploaded!

WunderBlog® & News

Nearby

Air Quality

  Air Quality AQ Index Pollutant
Not available.

Snow Depth

Station Depth Elevation

Earthquake Activity

City Distance Mag. Time & Date
Minimum magnitude displayed is 2.5.

Coastal Water Temperatures

Place Temperature

Stations

Nearby Weather Stations

Station Location Temp. Windchill Dew Point Humidity Wind Precip. Elev Updated Type